sensor_id;sensor_type;location;lat;lon;timestamp;pressure;altitude;pressure_sealevel;temperature;humidity
52535;BME280;38443;53.164;5.802;2023-08-01T00:01:00;99927.63;;;15.26;100.00
52535;BME280;38443;53.164;5.802;2023-08-01T00:03:26;99924.25;;;15.22;100.00
52535;BME280;38443;53.164;5.802;2023-08-01T00:05:51;99905.69;;;15.18;100.00
52535;BME280;38443;53.164;5.802;2023-08-01T00:08:16;99920.22;;;15.15;100.00
52535;BME280;38443;53.164;5.802;2023-08-01T00:10:42;99912.13;;;15.15;100.00
52535;BME280;38443;53.164;5.802;2023-08-01T00:13:08;99901.94;;;15.06;100.00
52535;BME280;38443;53.164;5.802;2023-08-01T00:15:34;99903.97;;;15.02;100.00
52535;BME280;38443;53.164;5.802;2023-08-01T00:17:59;99892.72;;;14.95;100.00
52535;BME280;38443;53.164;5.802;2023-08-01T00:20:25;99893.09;;;14.89;100.00
52535;BME280;38443;53.164;5.802;2023-08-01T00:22:50;99890.00;;;14.81;100.00
52535;BME280;38443;53.164;5.802;2023-08-01T00:25:16;99892.19;;;14.74;100.00
52535;BME280;38443;53.164;5.802;2023-08-01T00:27:41;99879.13;;;14.68;100.00
52535;BME280;38443;53.164;5.802;2023-08-01T00:30:07;99880.56;;;14.60;100.00
52535;BME280;38443;53.164;5.802;2023-08-01T00:32:34;99873.59;;;14.55;100.00
52535;BME280;38443;53.164;5.802;2023-08-01T00:35:00;99872.06;;;14.51;100.00
52535;BME280;38443;53.164;5.802;2023-08-01T00:37:25;99859.75;;;14.47;100.00
52535;BME280;38443;53.164;5.802;2023-08-01T00:39:50;99868.38;;;14.38;100.00
52535;BME280;38443;53.164;5.802;2023-08-01T00:42:16;99861.44;;;14.34;100.00
52535;BME280;38443;53.164;5.802;2023-08-01T00:44:41;99863.44;;;14.30;100.00
52535;BME280;38443;53.164;5.802;2023-08-01T00:47:06;99855.66;;;14.26;100.00
52535;BME280;38443;53.164;5.802;2023-08-01T00:49:32;99857.59;;;14.24;100.00
52535;BME280;38443;53.164;5.802;2023-08-01T00:51:57;99852.38;;;14.21;100.00
52535;BME280;38443;53.164;5.802;2023-08-01T00:54:23;99844.50;;;14.18;100.00
52535;BME280;38443;53.164;5.802;2023-08-01T00:56:49;99841.81;;;14.18;100.00
52535;BME280;38443;53.164;5.802;2023-08-01T00:59:15;99829.28;;;14.16;100.00
52535;BME280;38443;53.164;5.802;2023-08-01T01:01:40;99834.66;;;14.16;100.00
52535;BME280;38443;53.164;5.802;2023-08-01T01:04:06;99836.41;;;14.18;100.00
52535;BME280;38443;53.164;5.802;2023-08-01T01:06:35;99830.16;;;14.17;100.00
52535;BME280;38443;53.164;5.802;2023-08-01T01:09:02;99822.97;;;14.18;100.00
52535;BME280;38443;53.164;5.802;2023-08-01T01:11:39;99823.91;;;14.16;100.00
52535;BME280;38443;53.164;5.802;2023-08-01T01:14:04;99819.50;;;14.15;100.00
52535;BME280;38443;53.164;5.802;2023-08-01T01:16:29;99813.44;;;14.12;100.00
52535;BME280;38443;53.164;5.802;2023-08-01T01:18:54;99818.13;;;14.08;100.00
52535;BME280;38443;53.164;5.802;2023-08-01T01:21:20;99818.34;;;14.05;100.00
52535;BME280;38443;53.164;5.802;2023-08-01T01:23:45;99818.41;;;14.04;100.00
52535;BME280;38443;53.164;5.802;2023-08-01T01:26:13;99815.81;;;14.02;100.00
52535;BME280;38443;53.164;5.802;2023-08-01T01:28:42;99814.94;;;14.02;100.00
52535;BME280;38443;53.164;5.802;2023-08-01T01:31:08;99808.81;;;14.00;100.00
52535;BME280;38443;53.164;5.802;2023-08-01T01:33:34;99802.53;;;13.99;100.00
52535;BME280;38443;53.164;5.802;2023-08-01T01:36:00;99798.22;;;13.96;100.00
52535;BME280;38443;53.164;5.802;2023-08-01T01:38:26;99793.69;;;13.97;100.00
52535;BME280;38443;53.164;5.802;2023-08-01T01:40:52;99796.50;;;13.95;100.00
52535;BME280;38443;53.164;5.802;2023-08-01T01:43:17;99788.41;;;13.95;100.00
52535;BME280;38443;53.164;5.802;2023-08-01T01:45:42;99786.75;;;13.93;100.00
52535;BME280;38443;53.164;5.802;2023-08-01T01:48:08;99780.81;;;13.88;100.00
52535;BME280;38443;53.164;5.802;2023-08-01T01:50:33;99770.22;;;13.85;100.00
52535;BME280;38443;53.164;5.802;2023-08-01T01:52:59;99775.78;;;13.82;100.00
52535;BME280;38443;53.164;5.802;2023-08-01T01:55:24;99780.19;;;13.83;100.00
52535;BME280;38443;53.164;5.802;2023-08-01T01:57:50;99788.19;;;13.84;100.00
52535;BME280;38443;53.164;5.802;2023-08-01T02:02:45;99779.66;;;13.92;100.00
52535;BME280;38443;53.164;5.802;2023-08-01T02:05:10;99786.66;;;13.94;100.00
52535;BME280;38443;53.164;5.802;2023-08-01T02:07:35;99781.97;;;13.98;100.00
52535;BME280;38443;53.164;5.802;2023-08-01T02:10:01;99790.53;;;14.05;100.00
52535;BME280;38443;53.164;5.802;2023-08-01T02:12:27;99796.88;;;14.04;100.00
52535;BME280;38443;53.164;5.802;2023-08-01T02:14:56;99811.13;;;14.06;100.00
52535;BME280;38443;53.164;5.802;2023-08-01T02:17:22;99811.50;;;14.00;100.00
52535;BME280;38443;53.164;5.802;2023-08-01T02:19:47;99807.34;;;13.94;100.00
52535;BME280;38443;53.164;5.802;2023-08-01T02:22:12;99810.19;;;13.91;100.00
52535;BME280;38443;53.164;5.802;2023-08-01T02:24:38;99807.50;;;13.91;100.00
52535;BME280;38443;53.164;5.802;2023-08-01T02:27:03;99807.25;;;13.95;100.00
52535;BME280;38443;53.164;5.802;2023-08-01T02:29:29;99803.50;;;13.98;100.00
52535;BME280;38443;53.164;5.802;2023-08-01T02:31:54;99803.41;;;14.00;100.00
52535;BME280;38443;53.164;5.802;2023-08-01T02:34:21;99804.34;;;13.99;100.00
52535;BME280;38443;53.164;5.802;2023-08-01T02:36:46;99794.44;;;13.99;100.00
52535;BME280;38443;53.164;5.802;2023-08-01T02:39:11;99801.59;;;14.00;100.00
52535;BME280;38443;53.164;5.802;2023-08-01T02:41:37;99794.38;;;14.01;100.00
52535;BME280;38443;53.164;5.802;2023-08-01T02:44:02;99800.72;;;14.00;100.00
52535;BME280;38443;53.164;5.802;2023-08-01T02:46:28;99787.34;;;13.98;100.00
52535;BME280;38443;53.164;5.802;2023-08-01T02:48:54;99792.91;;;13.95;100.00
52535;BME280;38443;53.164;5.802;2023-08-01T02:51:20;99788.41;;;13.95;100.00
52535;BME280;38443;53.164;5.802;2023-08-01T02:53:45;99788.50;;;13.94;100.00
52535;BME280;38443;53.164;5.802;2023-08-01T02:56:10;99789.38;;;13.94;100.00
52535;BME280;38443;53.164;5.802;2023-08-01T02:58:36;99782.25;;;13.93;100.00
52535;BME280;38443;53.164;5.802;2023-08-01T03:01:06;99786.75;;;13.93;100.00
52535;BME280;38443;53.164;5.802;2023-08-01T03:03:32;99785.03;;;13.92;100.00
52535;BME280;38443;53.164;5.802;2023-08-01T03:05:57;99784.06;;;13.93;100.00
52535;BME280;38443;53.164;5.802;2023-08-01T03:08:23;99784.84;;;13.95;100.00
52535;BME280;38443;53.164;5.802;2023-08-01T03:10:48;99780.44;;;13.94;100.00
52535;BME280;38443;53.164;5.802;2023-08-01T03:13:14;99782.16;;;13.95;100.00
52535;BME280;38443;53.164;5.802;2023-08-01T03:15:39;99779.56;;;13.93;100.00
52535;BME280;38443;53.164;5.802;2023-08-01T03:18:04;99783.22;;;13.92;100.00
52535;BME280;38443;53.164;5.802;2023-08-01T03:20:30;99770.72;;;13.91;100.00
52535;BME280;38443;53.164;5.802;2023-08-01T03:22:55;99773.69;;;13.87;100.00
52535;BME280;38443;53.164;5.802;2023-08-01T03:25:21;99773.69;;;13.87;100.00
52535;BME280;38443;53.164;5.802;2023-08-01T03:27:46;99770.03;;;13.88;100.00
52535;BME280;38443;53.164;5.802;2023-08-01T03:30:11;99773.69;;;13.87;100.00
52535;BME280;38443;53.164;5.802;2023-08-01T03:32:37;99779.94;;;13.87;100.00
52535;BME280;38443;53.164;5.802;2023-08-01T03:35:06;99780.97;;;13.85;100.00
52535;BME280;38443;53.164;5.802;2023-08-01T03:37:32;99786.47;;;13.83;100.00
52535;BME280;38443;53.164;5.802;2023-08-01T03:39:57;99784.56;;;13.85;100.00
52535;BME280;38443;53.164;5.802;2023-08-01T03:42:23;99789.94;;;13.85;100.00
52535;BME280;38443;53.164;5.802;2023-08-01T03:44:48;99795.41;;;13.84;100.00
52535;BME280;38443;53.164;5.802;2023-08-01T03:47:14;99791.84;;;13.83;100.00
52535;BME280;38443;53.164;5.802;2023-08-01T03:49:39;99793.84;;;13.80;100.00
52535;BME280;38443;53.164;5.802;2023-08-01T03:52:05;99792.09;;;13.79;100.00
52535;BME280;38443;53.164;5.802;2023-08-01T03:54:31;99789.41;;;13.79;100.00
52535;BME280;38443;53.164;5.802;2023-08-01T03:56:56;99785.00;;;13.77;100.00
52535;BME280;38443;53.164;5.802;2023-08-01T03:59:22;99781.44;;;13.77;100.00
52535;BME280;38443;53.164;5.802;2023-08-01T04:01:47;99786.91;;;13.75;100.00
52535;BME280;38443;53.164;5.802;2023-08-01T04:04:13;99785.09;;;13.76;100.00
52535;BME280;38443;53.164;5.802;2023-08-01T04:06:38;99784.22;;;13.75;100.00
52535;BME280;38443;53.164;5.802;2023-08-01T04:09:03;99782.31;;;13.77;100.00
52535;BME280;38443;53.164;5.802;2023-08-01T04:11:30;99791.06;;;13.81;100.00
52535;BME280;38443;53.164;5.802;2023-08-01T04:13:56;99801.63;;;13.84;100.00
52535;BME280;38443;53.164;5.802;2023-08-01T04:16:21;99795.19;;;13.87;100.00
52535;BME280;38443;53.164;5.802;2023-08-01T04:18:47;99797.72;;;13.90;100.00
52535;BME280;38443;53.164;5.802;2023-08-01T04:21:13;99797.72;;;13.90;100.00
52535;BME280;38443;53.164;5.802;2023-08-01T04:23:39;99790.41;;;13.92;100.00
52535;BME280;38443;53.164;5.802;2023-08-01T04:26:05;99783.22;;;13.92;100.00
52535;BME280;38443;53.164;5.802;2023-08-01T04:28:32;99786.66;;;13.94;100.00
52535;BME280;38443;53.164;5.802;2023-08-01T04:30:57;99785.72;;;13.95;100.00
52535;BME280;38443;53.164;5.802;2023-08-01T04:33:22;99791.09;;;13.95;100.00
52535;BME280;38443;53.164;5.802;2023-08-01T04:35:48;99779.38;;;13.96;100.00
52535;BME280;38443;53.164;5.802;2023-08-01T04:38:14;99786.50;;;13.98;100.00
52535;BME280;38443;53.164;5.802;2023-08-01T04:40:40;99773.13;;;13.96;100.00
52535;BME280;38443;53.164;5.802;2023-08-01T04:43:05;99773.06;;;13.98;100.00
52535;BME280;38443;53.164;5.802;2023-08-01T04:45:31;99775.53;;;14.01;100.00
52535;BME280;38443;53.164;5.802;2023-08-01T04:47:56;99775.44;;;14.02;100.00
52535;BME280;38443;53.164;5.802;2023-08-01T04:50:21;99781.50;;;14.06;100.00
52535;BME280;38443;53.164;5.802;2023-08-01T04:52:47;99776.81;;;14.09;100.00
52535;BME280;38443;53.164;5.802;2023-08-01T04:55:12;99776.53;;;14.14;100.00
52535;BME280;38443;53.164;5.802;2023-08-01T04:57:37;99781.63;;;14.19;100.00
52535;BME280;38443;53.164;5.802;2023-08-01T05:00:04;99782.22;;;14.24;100.00
52535;BME280;38443;53.164;5.802;2023-08-01T05:02:29;99778.47;;;14.26;100.00
52535;BME280;38443;53.164;5.802;2023-08-01T05:04:55;99780.97;;;14.29;100.00
52535;BME280;38443;53.164;5.802;2023-08-01T05:07:20;99788.84;;;14.32;100.00
52535;BME280;38443;53.164;5.802;2023-08-01T05:09:45;99789.72;;;14.33;100.00
52535;BME280;38443;53.164;5.802;2023-08-01T05:12:11;99786.25;;;14.31;100.00
52535;BME280;38443;53.164;5.802;2023-08-01T05:14:36;99787.22;;;14.30;100.00
52535;BME280;38443;53.164;5.802;2023-08-01T05:17:02;99788.16;;;14.29;100.00
52535;BME280;38443;53.164;5.802;2023-08-01T05:19:27;99794.22;;;14.18;100.00
52535;BME280;38443;53.164;5.802;2023-08-01T05:21:52;99785.66;;;14.11;100.00
52535;BME280;38443;53.164;5.802;2023-08-01T05:24:18;99793.13;;;14.06;100.00
52535;BME280;38443;53.164;5.802;2023-08-01T05:26:43;99795.25;;;14.01;100.00
52535;BME280;38443;53.164;5.802;2023-08-01T05:29:08;99792.75;;;13.98;100.00
52535;BME280;38443;53.164;5.802;2023-08-01T05:31:34;99800.22;;;13.93;100.00
52535;BME280;38443;53.164;5.802;2023-08-01T05:33:59;99789.66;;;13.90;100.00
52535;BME280;38443;53.164;5.802;2023-08-01T05:36:24;99784.56;;;13.85;100.00
52535;BME280;38443;53.164;5.802;2023-08-01T05:38:50;99777.34;;;13.86;100.00
52535;BME280;38443;53.164;5.802;2023-08-01T05:41:15;99782.81;;;13.84;100.00
52535;BME280;38443;53.164;5.802;2023-08-01T05:43:40;99780.88;;;13.86;100.00
52535;BME280;38443;53.164;5.802;2023-08-01T05:46:06;99794.25;;;13.88;100.00
52535;BME280;38443;53.164;5.802;2023-08-01T05:48:31;99787.13;;;13.87;100.00
52535;BME280;38443;53.164;5.802;2023-08-01T05:50:56;99783.22;;;13.92;100.00
52535;BME280;38443;53.164;5.802;2023-08-01T05:53:23;99788.31;;;13.97;100.00
52535;BME280;38443;53.164;5.802;2023-08-01T05:55:49;99786.91;;;14.06;100.00
52535;BME280;38443;53.164;5.802;2023-08-01T05:58:14;99787.38;;;14.12;100.00
52535;BME280;38443;53.164;5.802;2023-08-01T06:00:40;99783.94;;;14.25;100.00
52535;BME280;38443;53.164;5.802;2023-08-01T06:03:05;99789.22;;;14.41;100.00
52535;BME280;38443;53.164;5.802;2023-08-01T06:05:30;99791.06;;;14.54;100.00
52535;BME280;38443;53.164;5.802;2023-08-01T06:07:56;99783.91;;;14.69;100.00
52535;BME280;38443;53.164;5.802;2023-08-01T06:10:21;99784.38;;;14.76;100.00
52535;BME280;38443;53.164;5.802;2023-08-01T06:12:47;99790.53;;;14.78;100.00
52535;BME280;38443;53.164;5.802;2023-08-01T06:15:12;99787.06;;;14.76;100.00
52535;BME280;38443;53.164;5.802;2023-08-01T06:17:38;99781.09;;;14.71;100.00
52535;BME280;38443;53.164;5.802;2023-08-01T06:20:03;99782.25;;;14.67;100.00
52535;BME280;38443;53.164;5.802;2023-08-01T06:22:30;99777.16;;;14.62;100.00
52535;BME280;38443;53.164;5.802;2023-08-01T06:24:56;99775.53;;;14.60;100.00
52535;BME280;38443;53.164;5.802;2023-08-01T06:27:21;99774.75;;;14.58;100.00
52535;BME280;38443;53.164;5.802;2023-08-01T06:29:46;99777.59;;;14.54;100.00
52535;BME280;38443;53.164;5.802;2023-08-01T06:32:12;99772.44;;;14.51;100.00
52535;BME280;38443;53.164;5.802;2023-08-01T06:34:37;99775.22;;;14.50;100.00
52535;BME280;38443;53.164;5.802;2023-08-01T06:37:03;99778.00;;;14.48;100.00
52535;BME280;38443;53.164;5.802;2023-08-01T06:39:29;99767.22;;;14.48;100.00
52535;BME280;38443;53.164;5.802;2023-08-01T06:41:55;99771.75;;;14.48;100.00
52535;BME280;38443;53.164;5.802;2023-08-01T06:44:20;99769.91;;;14.48;100.00
52535;BME280;38443;53.164;5.802;2023-08-01T06:46:46;99768.28;;;14.46;100.00
52535;BME280;38443;53.164;5.802;2023-08-01T06:49:11;99765.59;;;14.46;100.00
52535;BME280;38443;53.164;5.802;2023-08-01T06:51:36;99761.38;;;14.42;100.00
52535;BME280;38443;53.164;5.802;2023-08-01T06:54:02;99764.63;;;14.32;100.00
52535;BME280;38443;53.164;5.802;2023-08-01T06:56:27;99776.53;;;14.28;100.00
52535;BME280;38443;53.164;5.802;2023-08-01T06:58:53;99773.56;;;14.33;100.00
52535;BME280;38443;53.164;5.802;2023-08-01T07:01:18;99773.75;;;14.44;100.00
52535;BME280;38443;53.164;5.802;2023-08-01T07:03:44;99770.16;;;14.60;100.00
52535;BME280;38443;53.164;5.802;2023-08-01T07:06:11;99772.72;;;14.75;100.00
52535;BME280;38443;53.164;5.802;2023-08-01T07:08:36;99779.63;;;14.94;100.00
52535;BME280;38443;53.164;5.802;2023-08-01T07:11:01;99778.72;;;15.08;100.00
52535;BME280;38443;53.164;5.802;2023-08-01T07:13:27;99777.84;;;15.07;100.00
52535;BME280;38443;53.164;5.802;2023-08-01T07:15:53;99775.31;;;14.91;100.00
52535;BME280;38443;53.164;5.802;2023-08-01T07:18:18;99783.88;;;14.84;100.00
52535;BME280;38443;53.164;5.802;2023-08-01T07:20:44;99795.06;;;14.78;100.00
52535;BME280;38443;53.164;5.802;2023-08-01T07:23:09;99787.44;;;14.70;100.00
52535;BME280;38443;53.164;5.802;2023-08-01T07:25:35;99796.69;;;14.66;100.00
52535;BME280;38443;53.164;5.802;2023-08-01T07:28:00;99800.81;;;14.57;100.00
52535;BME280;38443;53.164;5.802;2023-08-01T07:30:26;99796.06;;;14.46;100.00
52535;BME280;38443;53.164;5.802;2023-08-01T07:32:52;99794.81;;;14.38;100.00
52535;BME280;38443;53.164;5.802;2023-08-01T07:35:17;99800.31;;;14.36;100.00
52535;BME280;38443;53.164;5.802;2023-08-01T07:37:43;99813.75;;;14.36;100.00
52535;BME280;38443;53.164;5.802;2023-08-01T07:40:09;99813.00;;;14.34;100.00
52535;BME280;38443;53.164;5.802;2023-08-01T07:42:34;99816.75;;;14.31;100.00
52535;BME280;38443;53.164;5.802;2023-08-01T07:44:59;99823.84;;;14.32;100.00
52535;BME280;38443;53.164;5.802;2023-08-01T07:47:25;99814.72;;;14.35;100.00
52535;BME280;38443;53.164;5.802;2023-08-01T07:49:52;99808.94;;;14.41;100.00
52535;BME280;38443;53.164;5.802;2023-08-01T07:52:17;99811.06;;;14.50;100.00
52535;BME280;38443;53.164;5.802;2023-08-01T07:54:42;99809.00;;;14.70;100.00
52535;BME280;38443;53.164;5.802;2023-08-01T07:57:08;99800.59;;;14.89;100.00
52535;BME280;38443;53.164;5.802;2023-08-01T07:59:33;99810.81;;;15.25;100.00
52535;BME280;38443;53.164;5.802;2023-08-01T08:01:58;99813.28;;;15.43;100.00
52535;BME280;38443;53.164;5.802;2023-08-01T08:04:24;99809.41;;;15.47;100.00
52535;BME280;38443;53.164;5.802;2023-08-01T08:06:49;99811.94;;;15.50;100.00
52535;BME280;38443;53.164;5.802;2023-08-01T08:09:15;99801.91;;;15.52;100.00
52535;BME280;38443;53.164;5.802;2023-08-01T08:11:40;99805.59;;;15.91;100.00
52535;BME280;38443;53.164;5.802;2023-08-01T08:14:05;99809.00;;;16.20;100.00
52535;BME280;38443;53.164;5.802;2023-08-01T08:16:31;99797.88;;;16.38;100.00
52535;BME280;38443;53.164;5.802;2023-08-01T08:18:56;99806.31;;;16.46;100.00
52535;BME280;38443;53.164;5.802;2023-08-01T08:21:21;99805.00;;;16.39;100.00
52535;BME280;38443;53.164;5.802;2023-08-01T08:23:47;99795.28;;;16.36;100.00
52535;BME280;38443;53.164;5.802;2023-08-01T08:26:12;99787.59;;;16.81;100.00
52535;BME280;38443;53.164;5.802;2023-08-01T08:28:37;99785.56;;;16.85;100.00
52535;BME280;38443;53.164;5.802;2023-08-01T08:31:04;99770.38;;;17.08;100.00
52535;BME280;38443;53.164;5.802;2023-08-01T08:33:30;99753.09;;;17.46;100.00
52535;BME280;38443;53.164;5.802;2023-08-01T08:35:55;99746.91;;;17.32;100.00
52535;BME280;38443;53.164;5.802;2023-08-01T08:38:21;99760.69;;;17.17;100.00
52535;BME280;38443;53.164;5.802;2023-08-01T08:41:06;99755.34;;;17.28;100.00
52535;BME280;38443;53.164;5.802;2023-08-01T08:43:33;99745.28;;;17.54;100.00
52535;BME280;38443;53.164;5.802;2023-08-01T08:46:00;99761.66;;;17.40;100.00
52535;BME280;38443;53.164;5.802;2023-08-01T08:48:26;99760.31;;;17.10;100.00
52535;BME280;38443;53.164;5.802;2023-08-01T08:50:52;99771.03;;;16.99;100.00
52535;BME280;38443;53.164;5.802;2023-08-01T08:53:17;99767.13;;;17.03;100.00
52535;BME280;38443;53.164;5.802;2023-08-01T08:55:43;99767.78;;;17.30;100.00
52535;BME280;38443;53.164;5.802;2023-08-01T08:58:08;99767.22;;;17.62;100.00
52535;BME280;38443;53.164;5.802;2023-08-01T09:00:37;99769.47;;;17.80;100.00
52535;BME280;38443;53.164;5.802;2023-08-01T09:03:05;99768.56;;;17.68;100.00
52535;BME280;38443;53.164;5.802;2023-08-01T09:05:34;99769.94;;;17.38;100.00
52535;BME280;38443;53.164;5.802;2023-08-01T09:08:01;99769.19;;;17.36;100.00
52535;BME280;38443;53.164;5.802;2023-08-01T09:10:31;99766.63;;;17.22;100.00
52535;BME280;38443;53.164;5.802;2023-08-01T09:12:56;99780.09;;;16.98;100.00
52535;BME280;38443;53.164;5.802;2023-08-01T09:15:23;99788.16;;;16.86;100.00
52535;BME280;38443;53.164;5.802;2023-08-01T09:17:52;99790.59;;;16.89;100.00
52535;BME280;38443;53.164;5.802;2023-08-01T09:20:18;99792.00;;;17.08;100.00
52535;BME280;38443;53.164;5.802;2023-08-01T09:22:47;99796.78;;;17.28;100.00
52535;BME280;38443;53.164;5.802;2023-08-01T09:25:14;99799.53;;;17.40;100.00
52535;BME280;38443;53.164;5.802;2023-08-01T09:27:40;99785.06;;;17.41;100.00
52535;BME280;38443;53.164;5.802;2023-08-01T09:30:10;99793.81;;;17.44;100.00
52535;BME280;38443;53.164;5.802;2023-08-01T09:32:36;99795.63;;;17.44;100.00
52535;BME280;38443;53.164;5.802;2023-08-01T09:35:02;99795.47;;;17.58;100.00
52535;BME280;38443;53.164;5.802;2023-08-01T09:37:41;99809.03;;;17.69;100.00
52535;BME280;38443;53.164;5.802;2023-08-01T09:40:10;99801.28;;;17.89;100.00
52535;BME280;38443;53.164;5.802;2023-08-01T09:42:44;99808.78;;;18.21;100.00
52535;BME280;38443;53.164;5.802;2023-08-01T09:45:16;99782.69;;;18.31;100.00
52535;BME280;38443;53.164;5.802;2023-08-01T09:47:43;99791.59;;;18.44;100.00
52535;BME280;38443;53.164;5.802;2023-08-01T09:50:09;99767.19;;;18.44;100.00
52535;BME280;38443;53.164;5.802;2023-08-01T09:52:36;99796.34;;;18.29;100.00
52535;BME280;38443;53.164;5.802;2023-08-01T09:55:01;99808.53;;;18.24;100.00
52535;BME280;38443;53.164;5.802;2023-08-01T09:57:29;99816.38;;;18.16;100.00
52535;BME280;38443;53.164;5.802;2023-08-01T09:59:58;99820.47;;;17.86;100.00
52535;BME280;38443;53.164;5.802;2023-08-01T10:02:26;99821.03;;;17.78;100.00
52535;BME280;38443;53.164;5.802;2023-08-01T10:04:54;99820.03;;;17.79;100.00
52535;BME280;38443;53.164;5.802;2023-08-01T10:07:26;99809.03;;;17.69;100.00
52535;BME280;38443;53.164;5.802;2023-08-01T10:09:58;99815.63;;;17.78;100.00
52535;BME280;38443;53.164;5.802;2023-08-01T10:12:25;99821.47;;;17.85;100.00
52535;BME280;38443;53.164;5.802;2023-08-01T10:14:51;99815.31;;;17.94;100.00
52535;BME280;38443;53.164;5.802;2023-08-01T10:17:18;99817.88;;;18.20;100.00
52535;BME280;38443;53.164;5.802;2023-08-01T10:19:44;99808.09;;;18.52;100.00
52535;BME280;38443;53.164;5.802;2023-08-01T10:22:10;99820.91;;;18.50;100.00
52535;BME280;38443;53.164;5.802;2023-08-01T10:24:36;99818.91;;;18.41;100.00
52535;BME280;38443;53.164;5.802;2023-08-01T10:27:13;99825.59;;;18.48;100.00
52535;BME280;38443;53.164;5.802;2023-08-01T10:29:39;99822.78;;;18.72;100.00
52535;BME280;38443;53.164;5.802;2023-08-01T10:32:06;99827.94;;;18.76;100.00
52535;BME280;38443;53.164;5.802;2023-08-01T10:34:32;99821.38;;;18.56;100.00
52535;BME280;38443;53.164;5.802;2023-08-01T10:36:58;99826.81;;;18.44;100.00
52535;BME280;38443;53.164;5.802;2023-08-01T10:39:25;99822.47;;;18.30;100.00
52535;BME280;38443;53.164;5.802;2023-08-01T10:41:58;99823.00;;;18.00;100.00
52535;BME280;38443;53.164;5.802;2023-08-01T10:44:24;99825.66;;;17.89;100.00
52535;BME280;38443;53.164;5.802;2023-08-01T10:46:52;99830.72;;;17.93;100.00
52535;BME280;38443;53.164;5.802;2023-08-01T10:49:18;99821.56;;;18.19;100.00
52535;BME280;38443;53.164;5.802;2023-08-01T10:51:45;99837.88;;;18.41;100.00
52535;BME280;38443;53.164;5.802;2023-08-01T10:54:20;99823.59;;;18.39;100.00
52535;BME280;38443;53.164;5.802;2023-08-01T10:56:46;99828.16;;;18.39;100.00
52535;BME280;38443;53.164;5.802;2023-08-01T10:59:13;99837.84;;;18.30;100.00
52535;BME280;38443;53.164;5.802;2023-08-01T11:01:53;99845.03;;;18.42;100.00
52535;BME280;38443;53.164;5.802;2023-08-01T11:04:20;99849.97;;;18.48;100.00
52535;BME280;38443;53.164;5.802;2023-08-01T11:06:48;99844.28;;;18.40;100.00
52535;BME280;38443;53.164;5.802;2023-08-01T11:11:43;99848.88;;;18.51;100.00
52535;BME280;38443;53.164;5.802;2023-08-01T11:14:09;99854.81;;;18.79;100.00
52535;BME280;38443;53.164;5.802;2023-08-01T11:16:37;99857.66;;;18.77;100.00
52535;BME280;38443;53.164;5.802;2023-08-01T11:19:02;99860.06;;;18.58;100.00
52535;BME280;38443;53.164;5.802;2023-08-01T11:21:28;99851.53;;;18.40;100.00
52535;BME280;38443;53.164;5.802;2023-08-01T11:23:53;99867.72;;;18.17;100.00
52535;BME280;38443;53.164;5.802;2023-08-01T11:26:18;99870.00;;;17.99;100.00
52535;BME280;38443;53.164;5.802;2023-08-01T11:28:44;99871.75;;;18.00;100.00
52535;BME280;38443;53.164;5.802;2023-08-01T11:31:11;99870.13;;;18.33;100.00
52535;BME280;38443;53.164;5.802;2023-08-01T11:33:37;99861.81;;;18.59;100.00
52535;BME280;38443;53.164;5.802;2023-08-01T11:36:04;99872.59;;;18.83;100.00
52535;BME280;38443;53.164;5.802;2023-08-01T11:38:33;99865.56;;;19.14;100.00
52535;BME280;38443;53.164;5.802;2023-08-01T11:41:03;99868.78;;;19.30;100.00
52535;BME280;38443;53.164;5.802;2023-08-01T11:43:42;99862.84;;;19.25;100.00
52535;BME280;38443;53.164;5.802;2023-08-01T11:46:07;99867.97;;;19.62;100.00
52535;BME280;38443;53.164;5.802;2023-08-01T11:48:33;99864.88;;;19.78;100.00
52535;BME280;38443;53.164;5.802;2023-08-01T11:51:00;99873.22;;;19.86;100.00
52535;BME280;38443;53.164;5.802;2023-08-01T11:53:25;99881.13;;;19.89;100.00
52535;BME280;38443;53.164;5.802;2023-08-01T11:55:51;99880.44;;;19.76;100.00
52535;BME280;38443;53.164;5.802;2023-08-01T11:58:40;99880.22;;;19.57;100.00
52535;BME280;38443;53.164;5.802;2023-08-01T12:01:10;99883.91;;;19.56;100.00
52535;BME280;38443;53.164;5.802;2023-08-01T12:06:12;99882.97;;;19.11;100.00
52535;BME280;38443;53.164;5.802;2023-08-01T12:08:41;99892.94;;;18.88;100.00
52535;BME280;38443;53.164;5.802;2023-08-01T12:11:18;99902.47;;;18.70;100.00
52535;BME280;38443;53.164;5.802;2023-08-01T12:13:44;99903.97;;;18.74;100.00
52535;BME280;38443;53.164;5.802;2023-08-01T12:16:09;99905.81;;;18.62;100.00
52535;BME280;38443;53.164;5.802;2023-08-01T12:18:34;99922.53;;;18.56;100.00
52535;BME280;38443;53.164;5.802;2023-08-01T12:21:02;99905.28;;;18.92;100.00
52535;BME280;38443;53.164;5.802;2023-08-01T12:23:30;99903.16;;;19.41;100.00
52535;BME280;38443;53.164;5.802;2023-08-01T12:25:56;99906.84;;;19.51;100.00
52535;BME280;38443;53.164;5.802;2023-08-01T12:28:21;99902.44;;;19.39;100.00
52535;BME280;38443;53.164;5.802;2023-08-01T12:30:46;99906.25;;;19.14;100.00
52535;BME280;38443;53.164;5.802;2023-08-01T12:33:12;99916.38;;;19.12;100.00
52535;BME280;38443;53.164;5.802;2023-08-01T12:35:41;99906.13;;;19.49;100.00
52535;BME280;38443;53.164;5.802;2023-08-01T12:38:07;99914.13;;;19.85;100.00
52535;BME280;38443;53.164;5.802;2023-08-01T12:40:33;99917.41;;;20.00;100.00
52535;BME280;38443;53.164;5.802;2023-08-01T12:42:58;99911.22;;;19.98;100.00
52535;BME280;38443;53.164;5.802;2023-08-01T12:45:23;99912.56;;;20.03;100.00
52535;BME280;38443;53.164;5.802;2023-08-01T12:47:49;99907.47;;;20.10;100.00
52535;BME280;38443;53.164;5.802;2023-08-01T12:50:15;99909.38;;;19.98;100.00
52535;BME280;38443;53.164;5.802;2023-08-01T12:52:40;99915.34;;;19.69;100.00